sensor_id;sensor_type;location;lat;lon;timestamp;P1;durP1;ratioP1;P2;durP2;ratioP2
60243;SDS011;46106;51.468;5.814;2023-02-28T00:00:49;9.73;;;5.80;;
60243;SDS011;46106;51.468;5.814;2023-02-28T00:03:15;10.07;;;5.97;;
60243;SDS011;46106;51.468;5.814;2023-02-28T00:05:41;10.27;;;5.78;;
60243;SDS011;46106;51.468;5.814;2023-02-28T00:08:07;11.43;;;5.93;;
60243;SDS011;46106;51.468;5.814;2023-02-28T00:10:33;11.52;;;5.95;;
60243;SDS011;46106;51.468;5.814;2023-02-28T00:13:00;11.07;;;6.40;;
60243;SDS011;46106;51.468;5.814;2023-02-28T00:15:27;11.15;;;6.15;;
60243;SDS011;46106;51.468;5.814;2023-02-28T00:17:53;10.25;;;5.68;;
60243;SDS011;46106;51.468;5.814;2023-02-28T00:20:19;15.90;;;6.18;;
60243;SDS011;46106;51.468;5.814;2023-02-28T00:22:46;15.30;;;6.30;;
60243;SDS011;46106;51.468;5.814;2023-02-28T00:25:14;15.32;;;6.22;;
60243;SDS011;46106;51.468;5.814;2023-02-28T00:27:42;13.20;;;6.38;;
60243;SDS011;46106;51.468;5.814;2023-02-28T00:30:09;10.57;;;5.53;;
60243;SDS011;46106;51.468;5.814;2023-02-28T00:32:38;9.20;;;5.75;;
60243;SDS011;46106;51.468;5.814;2023-02-28T00:35:04;13.90;;;6.93;;
60243;SDS011;46106;51.468;5.814;2023-02-28T00:37:30;10.05;;;6.00;;
60243;SDS011;46106;51.468;5.814;2023-02-28T00:39:56;9.90;;;5.93;;
60243;SDS011;46106;51.468;5.814;2023-02-28T00:42:21;9.13;;;6.32;;
60243;SDS011;46106;51.468;5.814;2023-02-28T00:44:47;9.32;;;6.47;;
60243;SDS011;46106;51.468;5.814;2023-02-28T00:47:13;13.48;;;6.10;;
60243;SDS011;46106;51.468;5.814;2023-02-28T00:49:39;12.73;;;7.20;;
60243;SDS011;46106;51.468;5.814;2023-02-28T00:52:04;10.10;;;6.32;;
60243;SDS011;46106;51.468;5.814;2023-02-28T00:54:30;15.10;;;6.95;;
60243;SDS011;46106;51.468;5.814;2023-02-28T00:56:55;12.00;;;6.50;;
60243;SDS011;46106;51.468;5.814;2023-02-28T00:59:21;18.25;;;7.57;;
60243;SDS011;46106;51.468;5.814;2023-02-28T01:01:46;12.43;;;6.03;;
60243;SDS011;46106;51.468;5.814;2023-02-28T01:04:12;20.05;;;6.95;;
60243;SDS011;46106;51.468;5.814;2023-02-28T01:06:39;12.65;;;7.15;;
60243;SDS011;46106;51.468;5.814;2023-02-28T01:09:06;15.80;;;6.63;;
60243;SDS011;46106;51.468;5.814;2023-02-28T01:11:33;10.85;;;6.72;;
60243;SDS011;46106;51.468;5.814;2023-02-28T01:13:59;13.27;;;7.43;;
60243;SDS011;46106;51.468;5.814;2023-02-28T01:16:24;14.93;;;6.78;;
60243;SDS011;46106;51.468;5.814;2023-02-28T01:18:50;14.00;;;7.40;;
60243;SDS011;46106;51.468;5.814;2023-02-28T01:21:16;14.75;;;7.35;;
60243;SDS011;46106;51.468;5.814;2023-02-28T01:23:44;14.93;;;7.60;;
60243;SDS011;46106;51.468;5.814;2023-02-28T01:26:16;12.98;;;6.90;;
60243;SDS011;46106;51.468;5.814;2023-02-28T01:28:44;19.20;;;7.88;;
60243;SDS011;46106;51.468;5.814;2023-02-28T01:31:10;16.73;;;7.25;;
60243;SDS011;46106;51.468;5.814;2023-02-28T01:33:36;11.13;;;7.55;;
60243;SDS011;46106;51.468;5.814;2023-02-28T01:36:07;14.75;;;8.25;;
60243;SDS011;46106;51.468;5.814;2023-02-28T01:38:35;18.05;;;8.02;;
60243;SDS011;46106;51.468;5.814;2023-02-28T01:41:01;22.83;;;8.85;;
60243;SDS011;46106;51.468;5.814;2023-02-28T01:43:27;22.77;;;7.93;;
60243;SDS011;46106;51.468;5.814;2023-02-28T01:46:09;15.55;;;8.00;;
60243;SDS011;46106;51.468;5.814;2023-02-28T01:48:40;23.48;;;9.55;;
60243;SDS011;46106;51.468;5.814;2023-02-28T01:51:13;20.17;;;9.13;;
60243;SDS011;46106;51.468;5.814;2023-02-28T01:53:42;20.83;;;9.20;;
60243;SDS011;46106;51.468;5.814;2023-02-28T01:56:12;16.98;;;8.95;;
60243;SDS011;46106;51.468;5.814;2023-02-28T01:58:49;20.80;;;8.68;;
60243;SDS011;46106;51.468;5.814;2023-02-28T02:01:16;17.25;;;9.77;;
60243;SDS011;46106;51.468;5.814;2023-02-28T02:03:48;19.92;;;9.20;;
60243;SDS011;46106;51.468;5.814;2023-02-28T02:06:25;11.82;;;8.32;;
60243;SDS011;46106;51.468;5.814;2023-02-28T02:08:54;20.83;;;9.07;;
60243;SDS011;46106;51.468;5.814;2023-02-28T02:11:20;13.88;;;8.77;;
60243;SDS011;46106;51.468;5.814;2023-02-28T02:27:57;19.83;;;9.13;;
60243;SDS011;46106;51.468;5.814;2023-02-28T02:41:34;20.27;;;8.32;;
60243;SDS011;46106;51.468;5.814;2023-02-28T02:44:14;14.57;;;8.45;;
60243;SDS011;46106;51.468;5.814;2023-02-28T02:49:37;14.20;;;7.72;;
60243;SDS011;46106;51.468;5.814;2023-02-28T02:52:06;15.30;;;8.73;;
60243;SDS011;46106;51.468;5.814;2023-02-28T02:54:35;17.73;;;7.88;;
60243;SDS011;46106;51.468;5.814;2023-02-28T02:57:08;16.88;;;8.05;;
60243;SDS011;46106;51.468;5.814;2023-02-28T02:59:38;16.10;;;7.72;;
60243;SDS011;46106;51.468;5.814;2023-02-28T03:02:06;22.92;;;8.65;;
60243;SDS011;46106;51.468;5.814;2023-02-28T03:04:40;15.40;;;7.55;;
60243;SDS011;46106;51.468;5.814;2023-02-28T03:07:10;14.35;;;7.28;;
60243;SDS011;46106;51.468;5.814;2023-02-28T03:09:35;20.92;;;7.30;;
60243;SDS011;46106;51.468;5.814;2023-02-28T03:12:01;13.48;;;7.78;;
60243;SDS011;46106;51.468;5.814;2023-02-28T03:30:58;15.70;;;7.30;;
60243;SDS011;46106;51.468;5.814;2023-02-28T03:33:32;13.35;;;7.03;;
60243;SDS011;46106;51.468;5.814;2023-02-28T03:36:16;11.02;;;7.18;;
60243;SDS011;46106;51.468;5.814;2023-02-28T03:38:46;15.00;;;6.78;;
60243;SDS011;46106;51.468;5.814;2023-02-28T03:46:41;14.25;;;7.03;;
60243;SDS011;46106;51.468;5.814;2023-02-28T03:49:16;10.30;;;5.93;;
60243;SDS011;46106;51.468;5.814;2023-02-28T03:51:56;12.32;;;6.22;;
60243;SDS011;46106;51.468;5.814;2023-02-28T03:54:30;14.85;;;6.70;;
60243;SDS011;46106;51.468;5.814;2023-02-28T03:59:44;15.10;;;6.82;;
60243;SDS011;46106;51.468;5.814;2023-02-28T04:04:41;11.18;;;5.90;;
60243;SDS011;46106;51.468;5.814;2023-02-28T04:07:13;10.38;;;6.03;;
60243;SDS011;46106;51.468;5.814;2023-02-28T04:09:39;12.82;;;6.82;;
60243;SDS011;46106;51.468;5.814;2023-02-28T04:12:05;11.13;;;6.95;;
60243;SDS011;46106;51.468;5.814;2023-02-28T04:14:31;9.90;;;6.00;;
60243;SDS011;46106;51.468;5.814;2023-02-28T04:16:56;16.48;;;6.40;;
60243;SDS011;46106;51.468;5.814;2023-02-28T04:19:22;12.35;;;6.72;;
60243;SDS011;46106;51.468;5.814;2023-02-28T04:21:48;10.52;;;5.75;;
60243;SDS011;46106;51.468;5.814;2023-02-28T04:24:16;13.18;;;6.45;;
60243;SDS011;46106;51.468;5.814;2023-02-28T04:26:47;11.13;;;6.03;;
60243;SDS011;46106;51.468;5.814;2023-02-28T04:29:31;13.40;;;5.97;;
60243;SDS011;46106;51.468;5.814;2023-02-28T04:31:58;14.07;;;6.63;;
60243;SDS011;46106;51.468;5.814;2023-02-28T04:34:28;9.38;;;6.20;;
60243;SDS011;46106;51.468;5.814;2023-02-28T04:36:55;13.18;;;6.05;;
60243;SDS011;46106;51.468;5.814;2023-02-28T04:39:22;14.20;;;5.55;;
60243;SDS011;46106;51.468;5.814;2023-02-28T04:41:48;9.43;;;5.78;;
60243;SDS011;46106;51.468;5.814;2023-02-28T04:44:14;12.63;;;5.55;;
60243;SDS011;46106;51.468;5.814;2023-02-28T04:46:40;23.95;;;10.93;;
60243;SDS011;46106;51.468;5.814;2023-02-28T04:49:06;7.82;;;5.35;;
60243;SDS011;46106;51.468;5.814;2023-02-28T04:51:31;6.93;;;5.25;;
60243;SDS011;46106;51.468;5.814;2023-02-28T04:53:57;7.97;;;5.00;;
60243;SDS011;46106;51.468;5.814;2023-02-28T04:56:23;12.93;;;5.10;;
60243;SDS011;46106;51.468;5.814;2023-02-28T04:58:48;10.75;;;5.05;;
60243;SDS011;46106;51.468;5.814;2023-02-28T05:01:19;9.75;;;4.60;;
60243;SDS011;46106;51.468;5.814;2023-02-28T05:03:50;13.13;;;4.63;;
60243;SDS011;46106;51.468;5.814;2023-02-28T05:06:17;8.55;;;4.78;;
60243;SDS011;46106;51.468;5.814;2023-02-28T05:08:44;8.45;;;4.72;;
60243;SDS011;46106;51.468;5.814;2023-02-28T05:11:28;11.00;;;5.43;;
60243;SDS011;46106;51.468;5.814;2023-02-28T05:13:59;13.18;;;4.88;;
60243;SDS011;46106;51.468;5.814;2023-02-28T05:16:26;6.65;;;4.60;;
60243;SDS011;46106;51.468;5.814;2023-02-28T05:18:52;10.10;;;4.75;;
60243;SDS011;46106;51.468;5.814;2023-02-28T05:21:32;8.18;;;4.70;;
60243;SDS011;46106;51.468;5.814;2023-02-28T05:24:11;7.88;;;4.38;;
60243;SDS011;46106;51.468;5.814;2023-02-28T05:26:38;8.02;;;4.40;;
60243;SDS011;46106;51.468;5.814;2023-02-28T05:29:05;9.80;;;4.45;;
60243;SDS011;46106;51.468;5.814;2023-02-28T05:31:31;9.48;;;4.20;;
60243;SDS011;46106;51.468;5.814;2023-02-28T05:33:57;8.65;;;4.05;;
60243;SDS011;46106;51.468;5.814;2023-02-28T05:36:24;9.30;;;4.55;;
60243;SDS011;46106;51.468;5.814;2023-02-28T05:38:50;9.18;;;3.97;;
60243;SDS011;46106;51.468;5.814;2023-02-28T05:41:16;5.82;;;3.92;;
60243;SDS011;46106;51.468;5.814;2023-02-28T05:43:44;11.25;;;4.35;;
60243;SDS011;46106;51.468;5.814;2023-02-28T05:46:11;7.38;;;4.18;;
60243;SDS011;46106;51.468;5.814;2023-02-28T05:48:37;9.77;;;4.45;;
60243;SDS011;46106;51.468;5.814;2023-02-28T05:51:04;8.63;;;5.13;;
60243;SDS011;46106;51.468;5.814;2023-02-28T05:53:30;12.73;;;4.90;;
60243;SDS011;46106;51.468;5.814;2023-02-28T05:55:56;5.75;;;4.55;;
60243;SDS011;46106;51.468;5.814;2023-02-28T05:58:22;7.30;;;4.32;;
60243;SDS011;46106;51.468;5.814;2023-02-28T06:00:48;10.60;;;4.40;;
60243;SDS011;46106;51.468;5.814;2023-02-28T06:03:14;7.63;;;3.92;;
60243;SDS011;46106;51.468;5.814;2023-02-28T06:05:39;9.02;;;4.97;;
60243;SDS011;46106;51.468;5.814;2023-02-28T06:08:05;10.65;;;4.70;;
60243;SDS011;46106;51.468;5.814;2023-02-28T06:10:32;11.82;;;4.47;;
60243;SDS011;46106;51.468;5.814;2023-02-28T06:12:59;7.75;;;4.30;;
60243;SDS011;46106;51.468;5.814;2023-02-28T06:15:27;5.45;;;3.88;;
60243;SDS011;46106;51.468;5.814;2023-02-28T06:17:53;12.85;;;4.45;;
60243;SDS011;46106;51.468;5.814;2023-02-28T06:20:21;9.57;;;4.55;;
60243;SDS011;46106;51.468;5.814;2023-02-28T06:22:46;11.10;;;4.30;;
60243;SDS011;46106;51.468;5.814;2023-02-28T06:25:12;13.82;;;4.47;;
60243;SDS011;46106;51.468;5.814;2023-02-28T06:27:37;10.55;;;4.65;;
60243;SDS011;46106;51.468;5.814;2023-02-28T06:30:03;7.75;;;4.53;;
60243;SDS011;46106;51.468;5.814;2023-02-28T06:32:29;12.02;;;4.95;;
60243;SDS011;46106;51.468;5.814;2023-02-28T06:34:54;9.55;;;4.15;;
60243;SDS011;46106;51.468;5.814;2023-02-28T06:37:22;7.35;;;4.65;;
60243;SDS011;46106;51.468;5.814;2023-02-28T06:39:51;8.10;;;3.88;;
60243;SDS011;46106;51.468;5.814;2023-02-28T06:42:16;9.00;;;4.72;;
60243;SDS011;46106;51.468;5.814;2023-02-28T06:44:42;7.13;;;4.25;;
60243;SDS011;46106;51.468;5.814;2023-02-28T06:47:08;7.90;;;4.35;;
60243;SDS011;46106;51.468;5.814;2023-02-28T06:49:35;10.55;;;4.40;;
60243;SDS011;46106;51.468;5.814;2023-02-28T06:52:01;4.78;;;3.53;;
60243;SDS011;46106;51.468;5.814;2023-02-28T06:54:26;6.72;;;4.07;;
60243;SDS011;46106;51.468;5.814;2023-02-28T06:56:52;8.68;;;3.70;;
60243;SDS011;46106;51.468;5.814;2023-02-28T06:59:19;11.65;;;3.97;;
60243;SDS011;46106;51.468;5.814;2023-02-28T07:01:45;5.70;;;3.15;;
60243;SDS011;46106;51.468;5.814;2023-02-28T07:04:11;6.50;;;4.43;;
60243;SDS011;46106;51.468;5.814;2023-02-28T07:06:38;9.43;;;4.00;;
60243;SDS011;46106;51.468;5.814;2023-02-28T07:09:04;7.97;;;4.43;;
60243;SDS011;46106;51.468;5.814;2023-02-28T07:11:29;6.35;;;3.65;;
60243;SDS011;46106;51.468;5.814;2023-02-28T07:13:55;6.63;;;3.33;;
60243;SDS011;46106;51.468;5.814;2023-02-28T07:16:22;5.78;;;3.90;;
60243;SDS011;46106;51.468;5.814;2023-02-28T07:18:51;5.38;;;3.20;;
60243;SDS011;46106;51.468;5.814;2023-02-28T07:21:18;5.53;;;3.45;;
60243;SDS011;46106;51.468;5.814;2023-02-28T07:23:43;5.43;;;3.40;;
60243;SDS011;46106;51.468;5.814;2023-02-28T07:26:11;7.10;;;4.15;;
60243;SDS011;46106;51.468;5.814;2023-02-28T07:28:44;6.93;;;3.28;;
60243;SDS011;46106;51.468;5.814;2023-02-28T07:31:10;6.35;;;3.85;;
60243;SDS011;46106;51.468;5.814;2023-02-28T07:33:37;7.65;;;3.30;;
60243;SDS011;46106;51.468;5.814;2023-02-28T07:36:03;7.78;;;3.70;;
60243;SDS011;46106;51.468;5.814;2023-02-28T07:38:30;7.07;;;3.72;;
60243;SDS011;46106;51.468;5.814;2023-02-28T07:40:59;4.65;;;3.22;;
60243;SDS011;46106;51.468;5.814;2023-02-28T07:43:26;4.53;;;3.03;;
60243;SDS011;46106;51.468;5.814;2023-02-28T07:45:51;4.78;;;2.97;;
60243;SDS011;46106;51.468;5.814;2023-02-28T07:48:16;7.00;;;3.05;;
60243;SDS011;46106;51.468;5.814;2023-02-28T07:50:42;5.47;;;2.88;;
60243;SDS011;46106;51.468;5.814;2023-02-28T07:53:07;7.00;;;3.00;;
60243;SDS011;46106;51.468;5.814;2023-02-28T07:55:33;6.25;;;2.58;;
60243;SDS011;46106;51.468;5.814;2023-02-28T07:57:58;7.95;;;3.47;;
60243;SDS011;46106;51.468;5.814;2023-02-28T08:00:24;3.95;;;2.40;;
60243;SDS011;46106;51.468;5.814;2023-02-28T08:02:50;4.65;;;2.92;;
60243;SDS011;46106;51.468;5.814;2023-02-28T08:05:16;5.22;;;2.97;;
60243;SDS011;46106;51.468;5.814;2023-02-28T08:07:42;13.75;;;3.03;;
60243;SDS011;46106;51.468;5.814;2023-02-28T08:10:07;5.53;;;3.50;;
60243;SDS011;46106;51.468;5.814;2023-02-28T08:12:35;8.82;;;2.85;;
60243;SDS011;46106;51.468;5.814;2023-02-28T08:15:00;6.90;;;2.28;;
60243;SDS011;46106;51.468;5.814;2023-02-28T08:17:26;6.45;;;2.70;;
60243;SDS011;46106;51.468;5.814;2023-02-28T08:19:51;11.85;;;3.10;;
60243;SDS011;46106;51.468;5.814;2023-02-28T08:22:17;5.65;;;3.10;;
60243;SDS011;46106;51.468;5.814;2023-02-28T08:24:42;4.22;;;2.97;;
60243;SDS011;46106;51.468;5.814;2023-02-28T08:27:08;9.65;;;2.67;;
60243;SDS011;46106;51.468;5.814;2023-02-28T08:29:36;5.65;;;2.90;;
60243;SDS011;46106;51.468;5.814;2023-02-28T08:32:02;7.63;;;3.00;;
60243;SDS011;46106;51.468;5.814;2023-02-28T08:34:28;4.80;;;2.63;;
60243;SDS011;46106;51.468;5.814;2023-02-28T08:36:54;2.55;;;2.17;;
60243;SDS011;46106;51.468;5.814;2023-02-28T08:39:19;3.15;;;1.65;;
60243;SDS011;46106;51.468;5.814;2023-02-28T08:41:45;2.67;;;2.05;;
60243;SDS011;46106;51.468;5.814;2023-02-28T08:44:10;3.05;;;1.88;;
60243;SDS011;46106;51.468;5.814;2023-02-28T08:46:36;8.55;;;1.98;;
60243;SDS011;46106;51.468;5.814;2023-02-28T08:49:01;12.57;;;2.17;;
60243;SDS011;46106;51.468;5.814;2023-02-28T08:51:27;2.22;;;1.92;;
60243;SDS011;46106;51.468;5.814;2023-02-28T08:53:54;2.67;;;1.85;;
60243;SDS011;46106;51.468;5.814;2023-02-28T08:56:24;2.72;;;1.60;;
60243;SDS011;46106;51.468;5.814;2023-02-28T08:58:50;2.05;;;1.50;;
60243;SDS011;46106;51.468;5.814;2023-02-28T09:01:20;6.40;;;1.95;;
60243;SDS011;46106;51.468;5.814;2023-02-28T09:03:52;5.65;;;2.00;;
60243;SDS011;46106;51.468;5.814;2023-02-28T09:06:19;5.15;;;1.52;;
60243;SDS011;46106;51.468;5.814;2023-02-28T09:08:46;5.03;;;1.73;;
60243;SDS011;46106;51.468;5.814;2023-02-28T09:11:11;6.30;;;1.50;;
60243;SDS011;46106;51.468;5.814;2023-02-28T09:13:37;3.00;;;1.58;;
60243;SDS011;46106;51.468;5.814;2023-02-28T09:16:04;4.53;;;1.80;;
60243;SDS011;46106;51.468;5.814;2023-02-28T09:18:33;5.30;;;1.70;;
60243;SDS011;46106;51.468;5.814;2023-02-28T09:20:59;3.67;;;1.60;;
60243;SDS011;46106;51.468;5.814;2023-02-28T09:23:29;4.40;;;1.63;;
60243;SDS011;46106;51.468;5.814;2023-02-28T09:25:54;2.97;;;1.70;;
60243;SDS011;46106;51.468;5.814;2023-02-28T09:28:20;3.55;;;1.55;;
60243;SDS011;46106;51.468;5.814;2023-02-28T09:30:47;2.20;;;1.42;;
60243;SDS011;46106;51.468;5.814;2023-02-28T09:33:14;2.67;;;1.27;;
60243;SDS011;46106;51.468;5.814;2023-02-28T09:35:40;3.75;;;1.30;;
60243;SDS011;46106;51.468;5.814;2023-02-28T09:38:06;1.83;;;1.20;;
60243;SDS011;46106;51.468;5.814;2023-02-28T09:40:34;1.85;;;1.23;;
60243;SDS011;46106;51.468;5.814;2023-02-28T09:43:02;5.25;;;1.65;;
60243;SDS011;46106;51.468;5.814;2023-02-28T09:45:35;2.75;;;1.58;;
60243;SDS011;46106;51.468;5.814;2023-02-28T09:48:06;4.05;;;1.52;;
60243;SDS011;46106;51.468;5.814;2023-02-28T09:50:48;1.92;;;1.30;;
60243;SDS011;46106;51.468;5.814;2023-02-28T09:53:26;6.85;;;1.33;;
60243;SDS011;46106;51.468;5.814;2023-02-28T09:55:59;4.03;;;1.17;;
60243;SDS011;46106;51.468;5.814;2023-02-28T09:58:42;3.28;;;1.30;;
60243;SDS011;46106;51.468;5.814;2023-02-28T10:04:16;3.53;;;1.45;;
60243;SDS011;46106;51.468;5.814;2023-02-28T10:06:50;3.88;;;1.05;;
60243;SDS011;46106;51.468;5.814;2023-02-28T10:09:19;1.77;;;1.23;;
60243;SDS011;46106;51.468;5.814;2023-02-28T10:11:52;4.43;;;1.27;;
60243;SDS011;46106;51.468;5.814;2023-02-28T10:14:22;4.60;;;1.33;;
60243;SDS011;46106;51.468;5.814;2023-02-28T10:22:31;2.28;;;1.50;;
60243;SDS011;46106;51.468;5.814;2023-02-28T10:25:23;3.17;;;1.20;;
60243;SDS011;46106;51.468;5.814;2023-02-28T10:27:54;1.60;;;1.08;;
60243;SDS011;46106;51.468;5.814;2023-02-28T10:30:49;2.13;;;1.35;;
60243;SDS011;46106;51.468;5.814;2023-02-28T10:33:32;1.60;;;1.08;;
60243;SDS011;46106;51.468;5.814;2023-02-28T10:36:01;1.98;;;1.15;;
60243;SDS011;46106;51.468;5.814;2023-02-28T10:38:28;2.05;;;1.08;;
60243;SDS011;46106;51.468;5.814;2023-02-28T10:41:06;2.80;;;1.23;;
60243;SDS011;46106;51.468;5.814;2023-02-28T10:43:33;2.42;;;1.10;;
60243;SDS011;46106;51.468;5.814;2023-02-28T10:48:35;1.73;;;1.08;;
60243;SDS011;46106;51.468;5.814;2023-02-28T10:51:10;2.93;;;1.30;;
60243;SDS011;46106;51.468;5.814;2023-02-28T10:53:59;2.05;;;1.00;;
60243;SDS011;46106;51.468;5.814;2023-02-28T10:56:27;4.05;;;1.35;;
60243;SDS011;46106;51.468;5.814;2023-02-28T11:01:24;2.13;;;1.13;;
60243;SDS011;46106;51.468;5.814;2023-02-28T11:07:06;4.07;;;1.10;;
60243;SDS011;46106;51.468;5.814;2023-02-28T11:09:45;1.77;;;1.23;;
60243;SDS011;46106;51.468;5.814;2023-02-28T11:14:52;3.83;;;1.80;;
60243;SDS011;46106;51.468;5.814;2023-02-28T11:17:25;5.32;;;1.60;;
60243;SDS011;46106;51.468;5.814;2023-02-28T11:19:54;2.30;;;1.38;;
60243;SDS011;46106;51.468;5.814;2023-02-28T11:22:27;2.30;;;1.60;;
60243;SDS011;46106;51.468;5.814;2023-02-28T11:24:55;3.00;;;1.70;;
60243;SDS011;46106;51.468;5.814;2023-02-28T11:27:42;2.37;;;1.87;;
60243;SDS011;46106;51.468;5.814;2023-02-28T11:33:01;3.45;;;1.30;;
60243;SDS011;46106;51.468;5.814;2023-02-28T11:35:46;2.90;;;1.70;;
60243;SDS011;46106;51.468;5.814;2023-02-28T11:38:14;2.47;;;1.55;;
60243;SDS011;46106;51.468;5.814;2023-02-28T11:40:49;3.03;;;1.42;;
60243;SDS011;46106;51.468;5.814;2023-02-28T12:05:30;3.63;;;1.92;;
60243;SDS011;46106;51.468;5.814;2023-02-28T12:10:57;2.42;;;1.70;;
60243;SDS011;46106;51.468;5.814;2023-02-28T12:13:26;1.30;;;1.20;;
60243;SDS011;46106;51.468;5.814;2023-02-28T12:16:24;2.53;;;1.40;;
60243;SDS011;46106;51.468;5.814;2023-02-28T12:19:26;2.25;;;1.40;;
60243;SDS011;46106;51.468;5.814;2023-02-28T12:22:18;1.77;;;1.48;;
60243;SDS011;46106;51.468;5.814;2023-02-28T12:25:14;1.70;;;1.55;;
60243;SDS011;46106;51.468;5.814;2023-02-28T12:27:48;2.63;;;1.40;;
60243;SDS011;46106;51.468;5.814;2023-02-28T12:32:44;2.55;;;2.00;;
60243;SDS011;46106;51.468;5.814;2023-02-28T12:35:14;3.15;;;1.55;;
60243;SDS011;46106;51.468;5.814;2023-02-28T12:40:28;3.13;;;1.70;;
60243;SDS011;46106;51.468;5.814;2023-02-28T12:43:17;5.82;;;1.63;;
60243;SDS011;46106;51.468;5.814;2023-02-28T12:48:15;4.93;;;1.75;;
60243;SDS011;46106;51.468;5.814;2023-02-28T12:50:45;2.30;;;1.60;;
60243;SDS011;46106;51.468;5.814;2023-02-28T13:07:08;2.53;;;1.52;;
60243;SDS011;46106;51.468;5.814;2023-02-28T13:09:54;1.75;;;1.60;;
60243;SDS011;46106;51.468;5.814;2023-02-28T13:12:22;2.95;;;1.20;;
60243;SDS011;46106;51.468;5.814;2023-02-28T13:14:49;3.92;;;1.50;;
60243;SDS011;46106;51.468;5.814;2023-02-28T13:17:19;1.55;;;1.42;;
60243;SDS011;46106;51.468;5.814;2023-02-28T13:19:55;4.00;;;1.73;;
60243;SDS011;46106;51.468;5.814;2023-02-28T13:27:48;4.15;;;1.80;;
60243;SDS011;46106;51.468;5.814;2023-02-28T13:33:30;2.55;;;2.03;;
60243;SDS011;46106;51.468;5.814;2023-02-28T13:38:37;2.33;;;2.00;;
60243;SDS011;46106;51.468;5.814;2023-02-28T13:44:10;1.80;;;1.65;;
60243;SDS011;46106;51.468;5.814;2023-02-28T13:51:48;3.83;;;2.10;;
60243;SDS011;46106;51.468;5.814;2023-02-28T14:01:02;3.95;;;2.00;;
60243;SDS011;46106;51.468;5.814;2023-02-28T14:04:54;3.00;;;2.05;;
60243;SDS011;46106;51.468;5.814;2023-02-28T14:07:04;2.42;;;1.95;;
60243;SDS011;46106;51.468;5.814;2023-02-28T14:16:06;5.78;;;2.10;;
60243;SDS011;46106;51.468;5.814;2023-02-28T14:18:05;4.15;;;2.35;;
60243;SDS011;46106;51.468;5.814;2023-02-28T14:20:41;2.95;;;1.45;;
60243;SDS011;46106;51.468;5.814;2023-02-28T14:32:01;2.30;;;2.10;;
60243;SDS011;46106;51.468;5.814;2023-02-28T14:37:27;6.13;;;2.60;;
60243;SDS011;46106;51.468;5.814;2023-02-28T14:39:55;2.97;;;1.85;;
60243;SDS011;46106;51.468;5.814;2023-02-28T14:42:33;3.17;;;2.17;;
60243;SDS011;46106;51.468;5.814;2023-02-28T14:45:00;3.05;;;1.88;;
60243;SDS011;46106;51.468;5.814;2023-02-28T14:47:28;2.85;;;2.17;;
60243;SDS011;46106;51.468;5.814;2023-02-28T14:49:57;6.72;;;2.10;;
60243;SDS011;46106;51.468;5.814;2023-02-28T14:52:26;4.57;;;1.60;;
60243;SDS011;46106;51.468;5.814;2023-02-28T14:54:55;4.57;;;1.80;;
60243;SDS011;46106;51.468;5.814;2023-02-28T14:57:27;3.20;;;2.00;;
60243;SDS011;46106;51.468;5.814;2023-02-28T14:59:59;4.07;;;2.22;;
60243;SDS011;46106;51.468;5.814;2023-02-28T15:02:45;4.10;;;2.10;;
60243;SDS011;46106;51.468;5.814;2023-02-28T15:07:46;3.65;;;1.70;;
60243;SDS011;46106;51.468;5.814;2023-02-28T15:12:48;3.60;;;1.85;;
60243;SDS011;46106;51.468;5.814;2023-02-28T15:15:17;2.00;;;1.90;;
60243;SDS011;46106;51.468;5.814;2023-02-28T15:17:45;2.25;;;1.95;;
60243;SDS011;46106;51.468;5.814;2023-02-28T15:20:14;3.88;;;2.03;;
60243;SDS011;46106;51.468;5.814;2023-02-28T15:22:41;4.93;;;2.13;;
60243;SDS011;46106;51.468;5.814;2023-02-28T15:25:09;2.45;;;1.80;;
60243;SDS011;46106;51.468;5.814;2023-02-28T15:27:44;2.77;;;1.80;;
60243;SDS011;46106;51.468;5.814;2023-02-28T15:30:21;4.38;;;1.98;;
60243;SDS011;46106;51.468;5.814;2023-02-28T15:35:38;3.10;;;2.28;;
60243;SDS011;46106;51.468;5.814;2023-02-28T15:38:23;2.72;;;1.85;;
60243;SDS011;46106;51.468;5.814;2023-02-28T15:43:26;6.25;;;2.03;;
60243;SDS011;46106;51.468;5.814;2023-02-28T15:46:02;2.58;;;1.90;;
60243;SDS011;46106;51.468;5.814;2023-02-28T15:48:32;6.05;;;1.88;;
60243;SDS011;46106;51.468;5.814;2023-02-28T15:54:17;5.53;;;2.20;;
60243;SDS011;46106;51.468;5.814;2023-02-28T15:56:26;2.90;;;1.67;;
60243;SDS011;46106;51.468;5.814;2023-02-28T15:58:59;3.35;;;2.03;;
60243;SDS011;46106;51.468;5.814;2023-02-28T16:01:37;2.67;;;1.80;;
60243;SDS011;46106;51.468;5.814;2023-02-28T16:04:04;3.17;;;2.25;;
60243;SDS011;46106;51.468;5.814;2023-02-28T16:09:05;7.50;;;2.30;;
60243;SDS011;46106;51.468;5.814;2023-02-28T16:11:33;6.15;;;2.22;;
60243;SDS011;46106;51.468;5.814;2023-02-28T16:14:02;3.17;;;2.28;;
60243;SDS011;46106;51.468;5.814;2023-02-28T16:16:28;2.65;;;1.90;;
60243;SDS011;46106;51.468;5.814;2023-02-28T16:18:53;2.25;;;2.05;;
60243;SDS011;46106;51.468;5.814;2023-02-28T16:21:19;1.90;;;1.80;;
60243;SDS011;46106;51.468;5.814;2023-02-28T16:23:45;4.07;;;2.38;;
60243;SDS011;46106;51.468;5.814;2023-02-28T16:26:18;2.30;;;1.92;;
60243;SDS011;46106;51.468;5.814;2023-02-28T16:28:49;2.90;;;1.92;;
60243;SDS011;46106;51.468;5.814;2023-02-28T16:31:16;6.30;;;1.80;;
60243;SDS011;46106;51.468;5.814;2023-02-28T16:33:43;4.30;;;2.00;;
60243;SDS011;46106;51.468;5.814;2023-02-28T16:36:14;3.80;;;2.00;;
60243;SDS011;46106;51.468;5.814;2023-02-28T16:38:44;3.38;;;1.88;;
60243;SDS011;46106;51.468;5.814;2023-02-28T16:41:12;2.85;;;2.20;;
60243;SDS011;46106;51.468;5.814;2023-02-28T16:43:43;8.43;;;2.00;;
60243;SDS011;46106;51.468;5.814;2023-02-28T16:46:11;4.28;;;2.08;;
60243;SDS011;46106;51.468;5.814;2023-02-28T16:48:37;5.07;;;2.83;;
60243;SDS011;46106;51.468;5.814;2023-02-28T16:51:05;2.92;;;2.10;;
60243;SDS011;46106;51.468;5.814;2023-02-28T16:53:39;2.92;;;2.08;;
60243;SDS011;46106;51.468;5.814;2023-02-28T16:56:05;4.10;;;2.00;;
60243;SDS011;46106;51.468;5.814;2023-02-28T16:58:31;5.45;;;2.53;;
60243;SDS011;46106;51.468;5.814;2023-02-28T17:01:00;4.55;;;2.13;;
60243;SDS011;46106;51.468;5.814;2023-02-28T17:03:27;3.53;;;2.47;;
60243;SDS011;46106;51.468;5.814;2023-02-28T17:05:54;3.42;;;2.20;;
60243;SDS011;46106;51.468;5.814;2023-02-28T17:08:20;4.60;;;2.30;;
60243;SDS011;46106;51.468;5.814;2023-02-28T17:10:46;2.53;;;2.33;;
60243;SDS011;46106;51.468;5.814;2023-02-28T17:13:13;8.35;;;2.75;;
60243;SDS011;46106;51.468;5.814;2023-02-28T17:15:38;6.65;;;2.38;;
60243;SDS011;46106;51.468;5.814;2023-02-28T17:18:05;2.80;;;2.50;;
60243;SDS011;46106;51.468;5.814;2023-02-28T17:20:32;4.93;;;2.53;;
60243;SDS011;46106;51.468;5.814;2023-02-28T17:22:57;3.97;;;2.90;;
60243;SDS011;46106;51.468;5.814;2023-02-28T17:25:23;3.38;;;2.65;;
60243;SDS011;46106;51.468;5.814;2023-02-28T17:27:52;4.60;;;3.00;;
60243;SDS011;46106;51.468;5.814;2023-02-28T17:30:19;6.00;;;3.17;;
60243;SDS011;46106;51.468;5.814;2023-02-28T17:32:46;3.90;;;3.00;;
60243;SDS011;46106;51.468;5.814;2023-02-28T17:35:12;3.33;;;2.88;;
60243;SDS011;46106;51.468;5.814;2023-02-28T17:37:38;3.45;;;2.83;;
60243;SDS011;46106;51.468;5.814;2023-02-28T17:40:03;7.30;;;3.15;;
60243;SDS011;46106;51.468;5.814;2023-02-28T17:42:30;4.50;;;2.45;;
60243;SDS011;46106;51.468;5.814;2023-02-28T17:44:55;7.10;;;3.60;;
60243;SDS011;46106;51.468;5.814;2023-02-28T17:47:21;4.13;;;3.13;;
60243;SDS011;46106;51.468;5.814;2023-02-28T17:49:46;3.97;;;2.60;;
60243;SDS011;46106;51.468;5.814;2023-02-28T17:52:12;4.63;;;3.00;;
60243;SDS011;46106;51.468;5.814;2023-02-28T17:54:37;5.60;;;3.38;;
60243;SDS011;46106;51.468;5.814;2023-02-28T17:57:03;2.92;;;2.63;;
60243;SDS011;46106;51.468;5.814;2023-02-28T17:59:28;6.65;;;3.75;;